createdAt,value
2019-04-30T09:07:20.259Z,23.54
2019-04-30T09:08:55.172Z,23.64
2019-04-30T09:09:55.172Z,23.34
2019-04-30T09:10:55.160Z,23.44
2019-04-30T09:11:55.921Z,23.23
2019-04-30T09:12:55.133Z,23.53
2019-04-30T09:13:55.122Z,23.43
2019-04-30T09:14:55.111Z,23.53
2019-04-30T09:15:55.105Z,23.13
2019-04-30T09:16:55.105Z,23.03
2019-04-30T09:18:03.123Z,23.03
2019-04-30T09:18:56.053Z,23.33
2019-04-30T09:19:55.042Z,22.23
2019-04-30T09:21:03.520Z,22.73
2019-04-30T09:21:56.122Z,22.13
2019-04-30T09:22:55.034Z,22.24
2019-04-30T09:23:55.033Z,21.84
2019-04-30T09:24:54.999Z,21.94
2019-04-30T09:25:55.005Z,21.94
2019-04-30T09:26:54.973Z,21.74
2019-04-30T09:27:54.986Z,22.14
2019-04-30T09:28:54.965Z,22.04
2019-04-30T09:29:54.957Z,22.04
2019-04-30T09:30:54.935Z,22.04
2019-04-30T09:31:54.915Z,21.25
2019-04-30T09:32:54.925Z,21.14
2019-04-30T09:33:57.699Z,20.95
2019-04-30T09:34:54.936Z,20.54
2019-04-30T09:35:54.889Z,20.05
2019-04-30T09:36:54.867Z,19.96
2019-04-30T09:37:59.791Z,19.76
2019-04-30T09:38:55.845Z,19.37
2019-04-30T09:40:02.265Z,19.37
2019-04-30T09:40:54.856Z,19.17
2019-04-30T09:41:54.815Z,19.08
2019-04-30T09:42:54.806Z,18.88
2019-04-30T09:43:54.789Z,18.78
2019-04-30T09:44:57.171Z,18.68
2019-04-30T09:45:54.876Z,18.88
2019-04-30T09:46:54.756Z,19.08
2019-04-30T09:47:54.748Z,18.88
2019-04-30T09:48:54.748Z,18.58
2019-04-30T09:49:54.713Z,18.78
2019-04-30T09:50:54.879Z,18.98
2019-04-30T09:51:54.800Z,18.88
2019-04-30T09:52:54.743Z,18.98
2019-04-30T09:53:59.168Z,18.98
2019-04-30T09:54:55.678Z,18.88
2019-04-30T09:55:54.666Z,18.77
2019-04-30T09:56:54.647Z,18.87
2019-04-30T09:57:54.780Z,18.77
2019-04-30T09:58:54.656Z,18.77
2019-04-30T09:59:54.607Z,18.88
2019-04-30T10:00:54.610Z,18.88
2019-04-30T10:01:54.596Z,18.68
2019-04-30T10:02:54.657Z,18.68
2019-04-30T10:03:55.069Z,18.88
2019-04-30T10:04:55.011Z,19.08
2019-04-30T10:05:54.569Z,18.88
2019-04-30T10:06:54.580Z,18.88
2019-04-30T10:07:54.553Z,18.98
2019-04-30T10:08:54.549Z,18.98
2019-04-30T10:09:54.491Z,18.78
2019-04-30T10:10:54.487Z,18.78
2019-04-30T10:12:01.484Z,18.58
2019-04-30T10:12:54.469Z,18.88
2019-04-30T10:13:54.466Z,18.68
2019-04-30T10:14:54.507Z,18.68
2019-04-30T10:15:54.434Z,18.68
2019-04-30T10:16:54.482Z,18.88
2019-04-30T10:17:54.414Z,18.77
2019-04-30T10:18:54.415Z,18.57
2019-04-30T10:19:54.408Z,18.67
2019-04-30T10:20:54.399Z,18.68
2019-04-30T10:21:54.389Z,18.67
2019-04-30T10:22:54.387Z,18.48
2019-04-30T10:23:54.369Z,18.68
2019-04-30T10:24:54.360Z,18.88
2019-04-30T10:25:54.379Z,19.07
2019-04-30T10:26:54.329Z,19.17
2019-04-30T10:27:54.337Z,19.07
2019-04-30T10:28:54.309Z,20.87
2019-04-30T10:29:54.288Z,20.06
2019-04-30T10:30:54.271Z,19.36
